Aérodrome :
LOGIN :

S'inscrire | Disclaimer

   EN    FR    IT 

 










Légende :    VFR   VFR Marginal   IFR   IFR Intensif   IFR Très Intensif
Visi : 
Plafond : 
>= 8 km
>= 3000ft
5 à 8 km
1000 à 3000 ft
1500m à 5 km
500 à 1000 ft
800 à 1500m
200 à 500 ft
< 800m
< 200 ft
Symboles :   Orages  Brouillard  Fortes neiges  Fortes précipitations  Vent > 20 kt
SIGMETs :   Divers  Orages  Givrage  Turbulence  Onde Orograph.  Cendres Volcan.






- Altitude de l'aérodrome : 616 ft
- Code IATA : PUF


LFBP - Pau

DERNIER METAR :
  • 232200Z AUTO 24007KT 9999 BKN012 OVC019 19/17 Q1014 NOSIG

METARs EXPIRÉS :
  • 232130Z AUTO 23004KT 190V260 9999 BKN013 OVC020 19/18 Q1014 NOSIG
  • 232100Z AUTO 22005KT 9999 FEW010 BKN014 OVC024 19/17 Q1014 BECMG BKN025
  • 232030Z AUTO 21006KT 170V240 9999 FEW010 SCT014 BKN020 20/18 Q1014 NOSIG
  • 232000Z AUTO 23005KT 190V270 9999 FEW012 SCT022 BKN027 20/17 Q1014 NOSIG
  • 231930Z AUTO 27006KT 9999 FEW028 BKN040 20/17 Q1013 NOSIG

TAF AMD TAF LFBP
Valide du 23 à 21h jusqu'au 24 à 18h UTC


232101Z 2321/2418 23005KT 9999 BKN020
TEMPO 2321/2406 BKN011
PROB40
TEMPO 2400/2406 4500 BR
BECMG 2408/2410 BKN030



MET'MAP, la Météo Aéronautique d'un coup d'oeil ! - Copyright ORBIFLY Décembre 2007 - Disclaimer

ORBIFLY MET'MAP TEAM :

Programmation & Développement : Alexandra Zaïnal
Sur une idée originale de : Baudouin d'Aumeries
Assistance à la programmation : Marc-Olivier Méhu
Soutien technique & logistique : Manuel Goepfert

Contact : metmap@orbifly.com




SOURCES & CREDITS :

   NOAA